This is the latest recevied weather packets stored in our database for station/object KM5VY. If no packets are shown the sender has not sent any weather packets the latest 10 day(s).
| Time | Temp. | Humidity | Pressure | Rain* | Wind** | Luminosity | Snow |
|---|---|---|---|---|---|---|---|
| 1777822420 | 11.11° C | 53% | 1022.7 hPa | 0 mm | - | - | - |
| 1777821820 | 10.56° C | 52% | 1022.7 hPa | 0 mm | - | - | - |
| 1777821461 | 10° C | 55% | 1022.7 hPa | 0 mm | - | - | - |
| 1777821421 | 10° C | 55% | 1022.7 hPa | 0 mm | - | - | - |
| 1777821277 | 10° C | 55% | 1022.7 hPa | 0 mm | - | - | - |
| 1777821219 | 10° C | 55% | 1022.7 hPa | 0 mm | - | - | - |
| 1777820016 | 8.89° C | 61% | 1022.7 hPa | 0 mm | - | - | - |
| 1777819675 | 8.33° C | 63% | 1023 hPa | 0 mm | - | - | - |
| 1777819415 | 8.33° C | 63% | 1023 hPa | 0 mm | - | - | - |
| 1777818814 | 7.78° C | 65% | 1023 hPa | 0 mm | - | - | - |
| 1777818213 | 7.22° C | 68% | 1023 hPa | 0 mm | - | - | - |
| 1777817012 | 5.56° C | 75% | 1022.7 hPa | 0 mm | - | - | - |
| 1777816410 | 4.44° C | 76% | 1022.7 hPa | 0 mm | - | - | - |
| 1777816003 | 3.89° C | 76% | 1023 hPa | 0 mm | - | - | - |
| 1777815810 | 3.89° C | 76% | 1023 hPa | 0 mm | - | - | - |
| 1777815209 | 2.78° C | 75% | 1023 hPa | 0 mm | - | - | - |
| 1777814607 | 2.22° C | 75% | 1023 hPa | 0 mm | - | - | - |
| 1777814302 | 1.11° C | 73% | 1023 hPa | 0 mm | - | - | - |
| 1777814007 | 1.11° C | 73% | 1023 hPa | 0 mm | - | - | - |
| 1777813405 | 1.11° C | 71% | 1022.7 hPa | 0 mm | - | - | - |
| 1777812804 | 1.11° C | 71% | 1022.7 hPa | 0 mm | - | - | - |
| 1777812483 | 1.11° C | 71% | 1023 hPa | 0 mm | - | - | - |
| 1777812250 | 1.11° C | 71% | 1023 hPa | 0 mm | - | - | - |
| 1777812203 | 1.11° C | 71% | 1023 hPa | 0 mm | - | - | - |
| 1777811654 | 1.11° C | 71% | 1023 hPa | 0 mm | - | - | - |
* Rain latest hour (hover to see other rain measurements)
** Current wind speed in m/s (hover to see current wind gust speed)